NC81 weather

Cox Airport
Apex, North Carolina, United States

Public forecast

Using degrees Fahrenheit for public forecast. Weather courtesy of forecast.io.

METAR (pilot weather report)

Closest report is Raleigh Durham International Airport, 8.3 nm (15.4 km) NNE. Retrieved 2019/08/19 20:24 UTC (6 minutes ago):

KRDU 192024Z 23003KT 10SM TS BKN050CB BKN120 BKN250 31/21 A3002 RMK AO2 TSB24 OCNL LTGICCG DSNT SE TS SE MOV STNRY TCU DSNT ALQDS T03110211

TAF (pilot weather forecast)

Closest forecast is Raleigh Durham International Airport, 8.3 nm (15.4 km) NNE. Retrieved 2019/08/19 18:28 UTC (2 hours ago):

TAF KRDU 191726Z 1918/2018 25006KT P6SM FEW035 FM192200 VRB05KT P6SM VCTS SCT200CB FM200200 VRB04KT P6SM BKN200 FM201100 VRB03KT 6SM BR SCT200 FM201300 24005KT P6SM BKN250